Time;durP1;ratioP1;P1;durP2;ratioP2;P2;SDS_P1;SDS_P2;PMS_P1;PMS_P2;Temp;Humidity;BMP_temperature;BMP_pressure;BME280_temperature;BME280_humidity;BME280_pressure;Samples;Min_cycle;Max_cycle;Signal;HPM_P1;HPM_P2
2021/07/30 00:02:23;;;;;;;4.78;3.67;;;22.40;56.00;;;;;;5028208;28;20029;-69
2021/07/30 00:04:48;;;;;;;8.13;3.78;;;22.40;56.30;;;;;;5031063;28;20360;-69
2021/07/30 00:07:14;;;;;;;5.60;3.95;;;22.30;56.30;;;;;;5031066;28;20036;-68
2021/07/30 00:09:40;;;;;;;5.22;4.07;;;22.30;56.30;;;;;;5030905;28;20048;-69
2021/07/30 00:12:07;;;;;;;4.50;3.67;;;22.30;56.40;;;;;;5028685;28;20049;-69
2021/07/30 00:14:33;;;;;;;4.85;3.95;;;22.30;56.40;;;;;;5030941;28;20471;-69
2021/07/30 00:16:59;;;;;;;7.30;3.90;;;22.30;56.50;;;;;;5031165;28;20372;-69
2021/07/30 00:19:25;;;;;;;9.45;3.50;;;22.20;56.30;;;;;;5031079;28;20096;-69
2021/07/30 00:21:51;;;;;;;7.10;3.50;;;22.20;56.40;;;;;;5031138;28;20029;-69
2021/07/30 00:24:17;;;;;;;4.20;3.28;;;22.20;56.50;;;;;;5019397;28;20380;-68
2021/07/30 00:26:43;;;;;;;4.75;3.70;;;22.10;56.40;;;;;;5011362;28;20025;-69
2021/07/30 00:29:09;;;;;;;4.72;3.55;;;22.10;56.70;;;;;;5011338;28;20030;-69
2021/07/30 00:31:35;;;;;;;7.53;4.03;;;22.10;56.90;;;;;;5020247;28;20129;-69
2021/07/30 00:34:00;;;;;;;5.45;4.65;;;22.10;56.80;;;;;;5028754;28;20032;-68
2021/07/30 00:36:26;;;;;;;5.38;3.92;;;22.10;57.10;;;;;;5030417;28;20029;-68
2021/07/30 00:38:52;;;;;;;4.45;3.60;;;22.00;57.10;;;;;;5026264;28;20132;-68
2021/07/30 00:41:17;;;;;;;4.57;3.95;;;22.00;57.10;;;;;;5011373;28;20105;-68
2021/07/30 00:43:44;;;;;;;8.52;4.05;;;22.00;57.00;;;;;;5011141;28;20030;-68
2021/07/30 00:46:10;;;;;;;5.45;3.80;;;22.00;57.50;;;;;;5011302;28;20033;-68
2021/07/30 00:48:37;;;;;;;8.75;3.80;;;21.90;57.50;;;;;;5016630;28;20445;-68
2021/07/30 00:51:03;;;;;;;6.15;4.15;;;21.90;57.40;;;;;;5033566;28;20025;-69
2021/07/30 00:53:29;;;;;;;6.70;4.20;;;21.90;57.50;;;;;;5033111;28;20030;-69
2021/07/30 00:55:57;;;;;;;4.45;3.45;;;21.90;57.70;;;;;;5034748;28;20045;-69
2021/07/30 00:58:24;;;;;;;10.95;3.92;;;21.90;57.70;;;;;;5030317;28;20088;-69
2021/07/30 01:00:51;;;;;;;9.38;4.50;;;21.90;57.70;;;;;;5016369;28;20021;-69
2021/07/30 01:03:17;;;;;;;9.23;4.32;;;21.80;57.90;;;;;;5032564;28;20056;-69
2021/07/30 01:05:44;;;;;;;6.30;3.80;;;21.80;58.00;;;;;;5029014;28;20468;-69
2021/07/30 01:08:10;;;;;;;9.95;4.47;;;21.80;58.10;;;;;;5029462;28;20033;-69
2021/07/30 01:10:36;;;;;;;6.75;4.47;;;21.80;58.10;;;;;;5034263;28;20159;-69
2021/07/30 01:13:02;;;;;;;5.72;4.10;;;21.70;58.60;;;;;;5033501;28;20029;-69
2021/07/30 01:15:28;;;;;;;8.55;4.65;;;21.70;58.50;;;;;;5015111;28;20022;-69
2021/07/30 01:17:54;;;;;;;7.13;4.82;;;21.70;58.50;;;;;;5014310;28;20041;-69
2021/07/30 01:20:24;;;;;;;5.00;3.78;;;21.70;58.70;;;;;;5014289;28;20480;-69
2021/07/30 01:22:54;;;;;;;13.90;4.30;;;21.70;58.70;;;;;;5014193;28;20793;-69
2021/07/30 01:25:21;;;;;;;5.20;4.05;;;21.70;58.70;;;;;;5031716;28;20039;-70
2021/07/30 01:27:48;;;;;;;7.00;4.05;;;21.70;58.70;;;;;;5031804;28;20029;-69
2021/07/30 01:30:16;;;;;;;7.65;3.72;;;21.70;58.50;;;;;;5032819;28;20048;-69
2021/07/30 01:32:42;;;;;;;7.82;3.65;;;21.60;58.60;;;;;;5031810;28;20029;-69
2021/07/30 01:35:08;;;;;;;5.57;3.88;;;21.60;58.70;;;;;;5032019;28;20103;-69
2021/07/30 01:37:34;;;;;;;5.65;4.13;;;21.60;58.80;;;;;;5023914;28;20134;-69
2021/07/30 01:40:01;;;;;;;5.35;3.95;;;21.50;58.70;;;;;;5019342;28;20080;-69
2021/07/30 01:42:27;;;;;;;5.30;3.65;;;21.50;58.60;;;;;;5013879;28;20468;-69
2021/07/30 01:44:54;;;;;;;6.25;4.00;;;21.50;58.80;;;;;;5022629;28;20049;-69
2021/07/30 01:47:20;;;;;;;10.05;4.13;;;21.40;58.60;;;;;;5032308;28;20459;-70
2021/07/30 01:49:47;;;;;;;8.20;4.43;;;21.50;58.80;;;;;;5033514;28;20403;-69
2021/07/30 01:52:12;;;;;;;8.73;4.75;;;21.40;59.10;;;;;;5021259;28;20049;-69
2021/07/30 01:54:39;;;;;;;11.88;4.88;;;21.40;59.30;;;;;;5013933;28;20022;-69
2021/07/30 01:57:05;;;;;;;5.00;4.10;;;21.30;59.40;;;;;;5016954;28;20502;-69
2021/07/30 01:59:31;;;;;;;5.07;4.20;;;21.30;59.10;;;;;;5033971;28;20109;-69
2021/07/30 02:01:57;;;;;;;8.07;4.82;;;21.30;59.30;;;;;;5031999;28;20467;-69
2021/07/30 02:04:23;;;;;;;6.10;4.40;;;21.20;59.70;;;;;;5025228;28;20029;-69
2021/07/30 02:06:49;;;;;;;7.20;4.47;;;21.20;59.70;;;;;;5018364;28;20500;-69
2021/07/30 02:09:15;;;;;;;8.05;4.95;;;21.20;59.70;;;;;;5014273;28;20029;-69
2021/07/30 02:11:42;;;;;;;4.57;4.05;;;21.20;59.70;;;;;;5014117;28;20022;-69
2021/07/30 02:14:18;;;;;;;6.65;4.85;;;21.20;59.60;;;;;;5024720;28;20391;-69
2021/07/30 02:16:46;;;;;;;8.35;4.72;;;21.20;59.90;;;;;;5022148;28;20033;-69
2021/07/30 02:19:12;;;;;;;7.47;4.40;;;21.10;59.90;;;;;;5012819;28;20026;-69
2021/07/30 02:21:38;;;;;;;11.55;4.03;;;21.10;59.90;;;;;;5014034;28;20392;-70
2021/07/30 02:24:05;;;;;;;5.13;3.80;;;21.10;60.10;;;;;;5013850;28;20022;-69
2021/07/30 02:26:31;;;;;;;6.07;4.38;;;21.10;59.90;;;;;;5020407;28;20025;-69
2021/07/30 02:28:57;;;;;;;6.57;4.75;;;21.10;59.80;;;;;;5031986;28;20033;-69
2021/07/30 02:31:23;;;;;;;7.50;4.38;;;21.10;60.00;;;;;;5033532;28;20049;-69
2021/07/30 02:33:49;;;;;;;9.30;4.25;;;21.00;60.20;;;;;;5033138;28;20437;-69
2021/07/30 02:36:15;;;;;;;7.82;4.22;;;21.10;60.20;;;;;;5033543;28;20498;-69
2021/07/30 02:38:41;;;;;;;8.82;4.30;;;21.00;60.20;;;;;;5031773;28;20120;-69
2021/07/30 02:41:07;;;;;;;6.45;4.55;;;21.00;60.20;;;;;;5033538;28;20057;-69
2021/07/30 02:43:33;;;;;;;5.47;4.40;;;21.00;60.30;;;;;;5033362;28;20025;-69
2021/07/30 02:45:59;;;;;;;6.90;4.68;;;21.00;60.20;;;;;;5033107;28;20044;-69
2021/07/30 02:48:25;;;;;;;7.40;4.30;;;21.00;60.20;;;;;;5027483;28;20436;-69
2021/07/30 02:50:50;;;;;;;6.55;4.93;;;20.90;60.50;;;;;;5013498;28;20495;-69
2021/07/30 02:53:16;;;;;;;7.30;4.80;;;20.90;61.00;;;;;;5013366;28;20084;-69
2021/07/30 02:55:42;;;;;;;8.52;5.30;;;20.90;60.90;;;;;;5013497;28;20037;-70
2021/07/30 02:58:08;;;;;;;5.72;4.85;;;20.90;60.90;;;;;;5032871;28;20410;-70
2021/07/30 03:00:34;;;;;;;9.60;7.05;;;20.90;61.50;;;;;;5028756;28;20021;-70
2021/07/30 03:03:00;;;;;;;11.05;7.57;;;20.90;62.20;;;;;;5013383;28;20022;-69
2021/07/30 03:05:25;;;;;;;8.52;5.85;;;20.90;62.50;;;;;;5028380;28;20033;-69
2021/07/30 03:07:51;;;;;;;14.05;5.70;;;20.90;61.90;;;;;;5033162;28;20121;-70
2021/07/30 03:10:17;;;;;;;10.05;5.10;;;20.90;61.80;;;;;;5033825;28;20471;-70
2021/07/30 03:12:43;;;;;;;6.60;4.93;;;20.90;61.50;;;;;;5032905;28;20033;-70
2021/07/30 03:15:09;;;;;;;7.80;4.22;;;20.90;61.80;;;;;;5032678;28;20035;-69
2021/07/30 03:17:34;;;;;;;6.80;4.75;;;20.80;61.60;;;;;;5032614;28;20479;-70
2021/07/30 03:20:00;;;;;;;7.43;4.80;;;20.80;61.50;;;;;;5032827;28;20033;-70
2021/07/30 03:22:26;;;;;;;7.18;4.88;;;20.80;61.50;;;;;;5031493;28;20083;-69
2021/07/30 03:24:52;;;;;;;15.88;5.70;;;20.80;61.80;;;;;;5030984;28;20037;-69
2021/07/30 03:27:17;;;;;;;9.43;6.75;;;20.80;61.80;;;;;;5033839;28;20483;-69
2021/07/30 03:29:43;;;;;;;7.88;5.60;;;20.80;61.70;;;;;;5032149;28;20037;-69
2021/07/30 03:32:09;;;;;;;8.73;7.00;;;20.80;61.60;;;;;;5031012;28;20044;-69
2021/07/30 03:34:35;;;;;;;12.70;8.77;;;20.70;61.70;;;;;;5020856;28;20041;-70
2021/07/30 03:37:02;;;;;;;11.32;7.72;;;20.70;62.00;;;;;;5013180;28;20148;-69
2021/07/30 03:39:28;;;;;;;9.13;6.95;;;20.80;63.30;;;;;;5012598;28;20077;-70
2021/07/30 03:41:54;;;;;;;10.95;6.05;;;20.70;63.60;;;;;;5043012;28;20024;-70
2021/07/30 03:44:20;;;;;;;7.45;5.55;;;20.80;63.10;;;;;;5047567;28;20022;-70
2021/07/30 03:46:45;;;;;;;7.25;5.18;;;20.70;63.50;;;;;;5031764;28;20048;-69
2021/07/30 03:49:11;;;;;;;9.07;5.68;;;20.70;63.40;;;;;;5029895;28;20037;-70
2021/07/30 03:51:37;;;;;;;8.60;5.30;;;20.80;63.50;;;;;;5012490;28;20064;-70
2021/07/30 03:54:03;;;;;;;13.30;6.65;;;20.70;63.30;;;;;;5012522;28;20033;-70
2021/07/30 03:56:28;;;;;;;10.48;6.70;;;20.70;63.80;;;;;;5012410;28;20101;-70
2021/07/30 03:58:54;;;;;;;10.73;5.85;;;20.70;63.70;;;;;;5012309;28;20034;-70
2021/07/30 04:01:20;;;;;;;7.80;5.30;;;20.70;63.40;;;;;;5012341;28;20018;-69
2021/07/30 04:03:45;;;;;;;5.65;4.38;;;20.70;63.30;;;;;;5026147;28;20029;-70
2021/07/30 04:06:14;;;;;;;9.20;4.93;;;20.70;63.10;;;;;;5031714;28;20102;-69
2021/07/30 04:08:40;;;;;;;7.00;5.57;;;20.70;62.90;;;;;;5031913;28;20034;-69
2021/07/30 04:11:06;;;;;;;8.57;5.55;;;20.70;63.30;;;;;;5031826;28;20033;-70
2021/07/30 04:13:33;;;;;;;8.80;5.72;;;20.70;63.30;;;;;;5031022;28;20483;-69
2021/07/30 04:16:03;;;;;;;7.20;5.03;;;20.80;63.30;;;;;;5029840;28;20034;-70
2021/07/30 04:18:28;;;;;;;6.90;4.72;;;20.80;63.30;;;;;;5030610;28;20029;-69
2021/07/30 04:20:54;;;;;;;7.13;4.45;;;20.80;63.10;;;;;;5030660;28;20018;-70
2021/07/30 04:23:20;;;;;;;6.70;5.03;;;20.80;63.00;;;;;;5018605;28;20062;-70
2021/07/30 04:25:46;;;;;;;6.65;5.45;;;20.80;62.90;;;;;;5014136;28;20022;-70
2021/07/30 04:28:12;;;;;;;7.22;4.93;;;20.80;63.10;;;;;;5015927;28;20026;-70
2021/07/30 04:30:37;;;;;;;9.60;5.10;;;20.90;63.20;;;;;;5015375;28;20050;-70
2021/07/30 04:33:03;;;;;;;8.43;5.45;;;20.90;63.00;;;;;;5016178;28;20022;-70
2021/07/30 04:35:29;;;;;;;10.27;5.85;;;21.00;63.50;;;;;;5021683;28;20034;-69
2021/07/30 04:37:56;;;;;;;7.80;5.30;;;21.00;63.40;;;;;;5036735;28;20028;-70
2021/07/30 04:40:22;;;;;;;5.50;4.97;;;21.00;63.40;;;;;;5035469;28;20053;-70
2021/07/30 04:42:48;;;;;;;7.40;4.95;;;21.10;63.50;;;;;;5023689;28;20026;-71
2021/07/30 04:45:14;;;;;;;6.18;4.63;;;21.10;63.30;;;;;;5015848;28;20113;-70
2021/07/30 04:47:40;;;;;;;9.10;5.00;;;21.20;63.20;;;;;;5045677;28;20029;-70
2021/07/30 04:50:06;;;;;;;5.13;4.60;;;21.20;63.20;;;;;;5046513;28;20067;-70
2021/07/30 04:52:32;;;;;;;7.57;4.93;;;21.30;63.10;;;;;;5028919;28;20076;-70
2021/07/30 04:54:57;;;;;;;9.80;5.13;;;21.40;62.90;;;;;;5035007;28;20045;-70
2021/07/30 04:57:23;;;;;;;7.45;5.00;;;21.40;62.80;;;;;;5035408;28;20030;-70
2021/07/30 04:59:49;;;;;;;6.28;4.55;;;21.50;63.50;;;;;;5034058;28;20044;-70
2021/07/30 05:02:15;;;;;;;6.15;5.05;;;21.50;62.60;;;;;;5034208;28;20116;-70
2021/07/30 05:04:40;;;;;;;5.95;4.90;;;21.60;62.60;;;;;;5034674;28;20430;-69
2021/07/30 05:07:06;;;;;;;9.35;5.43;;;21.60;62.40;;;;;;5034994;28;20075;-70
2021/07/30 05:09:32;;;;;;;8.98;4.82;;;21.70;62.30;;;;;;5035023;28;20056;-70
2021/07/30 05:11:57;;;;;;;13.15;5.05;;;21.70;62.10;;;;;;5030576;28;20818;-69
2021/07/30 05:14:23;;;;;;;8.25;5.70;;;21.80;62.00;;;;;;5015424;28;20092;-69
2021/07/30 05:16:49;;;;;;;8.38;5.38;;;21.80;61.90;;;;;;5015268;28;20097;-70
2021/07/30 05:19:15;;;;;;;8.80;5.25;;;21.90;61.80;;;;;;5015267;28;20056;-70
2021/07/30 05:21:41;;;;;;;7.93;4.88;;;22.00;61.60;;;;;;5015142;28;20022;-70
2021/07/30 05:24:06;;;;;;;13.32;5.82;;;22.10;61.60;;;;;;5033099;28;20033;-70
2021/07/30 05:26:32;;;;;;;10.45;5.63;;;22.10;61.50;;;;;;5024318;28;20025;-70
2021/07/30 05:28:58;;;;;;;7.38;5.55;;;22.20;61.30;;;;;;5033674;28;20025;-70
2021/07/30 05:31:24;;;;;;;7.25;5.55;;;22.20;61.20;;;;;;5031961;28;20088;-69
2021/07/30 05:33:50;;;;;;;7.95;6.38;;;22.30;61.10;;;;;;5021673;28;20160;-70
2021/07/30 05:36:20;;;;;;;11.13;6.68;;;22.40;61.00;;;;;;5019068;28;20472;-70
2021/07/30 05:38:47;;;;;;;7.90;6.03;;;22.50;60.80;;;;;;5023483;28;20029;-70
2021/07/30 05:41:14;;;;;;;9.52;6.80;;;22.60;60.70;;;;;;5034500;28;20553;-70
2021/07/30 05:43:41;;;;;;;10.77;6.35;;;22.60;60.50;;;;;;5014786;28;20391;-70
2021/07/30 05:46:08;;;;;;;8.95;6.05;;;22.70;60.30;;;;;;5014615;28;20052;-69
2021/07/30 05:48:34;;;;;;;9.52;5.65;;;22.70;60.20;;;;;;5014625;28;20129;-70
2021/07/30 05:51:00;;;;;;;8.48;5.57;;;22.80;60.00;;;;;;5014593;28;20097;-70
2021/07/30 05:53:26;;;;;;;7.57;5.82;;;22.90;59.80;;;;;;5031723;28;20076;-69
2021/07/30 05:55:52;;;;;;;9.55;5.80;;;22.90;60.40;;;;;;5032013;28;20065;-70
2021/07/30 05:58:18;;;;;;;7.15;5.63;;;23.00;59.70;;;;;;5033432;28;20501;-70
2021/07/30 06:00:43;;;;;;;8.13;5.50;;;23.10;59.60;;;;;;5032708;28;20025;-70
2021/07/30 06:03:09;;;;;;;12.35;6.43;;;23.20;59.60;;;;;;5026322;28;20040;-70
2021/07/30 06:05:35;;;;;;;13.82;5.88;;;23.30;59.50;;;;;;5033850;28;20483;-70
2021/07/30 06:08:05;;;;;;;13.10;6.20;;;23.40;59.40;;;;;;5034478;28;20030;-70
2021/07/30 06:10:31;;;;;;;16.33;6.75;;;23.50;59.30;;;;;;5046602;28;20025;-70
2021/07/30 06:12:57;;;;;;;8.38;5.40;;;23.60;59.10;;;;;;5026267;28;20109;-70
2021/07/30 06:15:23;;;;;;;9.60;6.75;;;23.70;59.10;;;;;;5014324;28;20105;-70
2021/07/30 06:17:53;;;;;;;9.32;6.70;;;23.80;58.80;;;;;;5013092;28;20111;-70
2021/07/30 06:20:21;;;;;;;8.43;6.22;;;24.00;58.60;;;;;;5014111;28;20022;-70
2021/07/30 06:22:47;;;;;;;10.73;7.03;;;24.10;58.70;;;;;;5025784;28;20100;-70
2021/07/30 06:25:13;;;;;;;9.07;6.18;;;24.20;59.20;;;;;;5029158;28;20161;-70
2021/07/30 06:27:39;;;;;;;15.20;8.07;;;24.40;58.50;;;;;;5013841;28;20033;-70
2021/07/30 06:30:07;;;;;;;11.40;7.68;;;24.60;58.10;;;;;;5013989;28;20030;-70
2021/07/30 06:32:33;;;;;;;10.98;6.75;;;24.80;57.70;;;;;;5026511;28;20053;-70
2021/07/30 06:34:59;;;;;;;10.05;7.15;;;24.90;57.30;;;;;;5027097;28;20029;-70
2021/07/30 06:37:25;;;;;;;14.55;7.93;;;25.10;57.10;;;;;;5026624;28;20383;-70
2021/07/30 06:39:50;;;;;;;16.50;7.95;;;25.20;56.60;;;;;;5031167;28;20034;-70
2021/07/30 06:42:16;;;;;;;14.20;7.10;;;25.30;56.50;;;;;;5032748;28;20038;-70
2021/07/30 06:44:47;;;;;;;8.82;6.32;;;25.30;56.30;;;;;;5032236;28;20045;-71
2021/07/30 06:47:13;;;;;;;10.20;6.55;;;25.30;56.00;;;;;;5032656;28;20037;-70
2021/07/30 06:49:39;;;;;;;8.30;6.47;;;25.40;56.10;;;;;;5033118;28;20021;-70
2021/07/30 06:52:07;;;;;;;7.68;6.28;;;25.50;56.10;;;;;;5024977;28;20112;-70
2021/07/30 06:54:33;;;;;;;17.40;6.38;;;25.50;55.70;;;;;;5027527;28;20021;-70
2021/07/30 06:57:02;;;;;;;11.93;5.60;;;25.50;55.50;;;;;;5041572;28;20049;-70
2021/07/30 06:59:28;;;;;;;19.73;9.13;;;25.60;55.60;;;;;;5025620;28;20101;-69
2021/07/30 07:01:54;;;;;;;43.58;10.90;;;25.70;55.30;;;;;;5029971;28;20109;-67
2021/07/30 07:04:20;;;;;;;27.15;10.38;;;25.80;55.40;;;;;;5032314;28;20036;-70
2021/07/30 07:06:47;;;;;;;18.77;9.77;;;25.90;55.20;;;;;;5020907;28;20383;-69
2021/07/30 07:09:17;;;;;;;20.48;10.25;;;26.00;55.00;;;;;;5020385;28;20029;-70
2021/07/30 07:11:43;;;;;;;16.48;9.73;;;26.20;54.80;;;;;;5027534;28;20029;-70
2021/07/30 07:14:08;;;;;;;27.48;9.18;;;26.30;54.60;;;;;;5029566;28;20043;-70
2021/07/30 07:16:34;;;;;;;21.90;10.18;;;26.40;54.10;;;;;;5030360;28;20049;-70
2021/07/30 07:19:00;;;;;;;20.58;10.23;;;26.50;53.40;;;;;;5031348;28;20029;-70
2021/07/30 07:21:26;;;;;;;21.63;10.40;;;26.50;53.30;;;;;;5032507;28;20032;-70
2021/07/30 07:23:52;;;;;;;16.95;10.15;;;26.50;53.00;;;;;;5031676;28;20037;-71
2021/07/30 07:26:18;;;;;;;21.77;10.27;;;26.50;53.10;;;;;;5032026;28;20037;-70
2021/07/30 07:28:45;;;;;;;19.98;10.75;;;26.50;53.20;;;;;;5031813;28;20029;-71
2021/07/30 07:31:11;;;;;;;17.25;10.13;;;26.60;53.10;;;;;;5026295;28;20041;-71
2021/07/30 07:33:37;;;;;;;16.65;9.18;;;26.60;53.10;;;;;;5014883;28;20040;-70
2021/07/30 07:36:03;;;;;;;26.13;11.07;;;26.70;52.80;;;;;;5020331;28;20095;-70
2021/07/30 07:38:29;;;;;;;18.83;10.23;;;26.70;52.70;;;;;;5026132;28;20022;-70
2021/07/30 07:40:54;;;;;;;18.40;9.88;;;26.80;52.60;;;;;;5026442;28;20095;-70
2021/07/30 07:43:20;;;;;;;24.13;10.32;;;26.90;52.60;;;;;;5029286;28;20484;-71
2021/07/30 07:45:46;;;;;;;21.67;10.38;;;26.90;52.40;;;;;;5031729;28;20037;-70
2021/07/30 07:48:12;;;;;;;17.92;9.02;;;26.90;52.60;;;;;;5028108;28;20025;-70
2021/07/30 07:50:37;;;;;;;19.02;10.38;;;26.90;52.50;;;;;;5047161;28;20033;-70
2021/07/30 07:53:13;;;;;;;21.73;11.35;;;27.00;52.40;;;;;;5026396;28;20021;-71
2021/07/30 07:55:39;;;;;;;24.75;11.43;;;27.00;52.20;;;;;;5030876;28;20021;-70
2021/07/30 07:58:05;;;;;;;28.92;11.75;;;27.10;52.00;;;;;;5025203;28;20033;-69
2021/07/30 08:00:33;;;;;;;22.90;10.02;;;27.20;51.90;;;;;;5028251;28;20594;-69
2021/07/30 08:02:59;;;;;;;17.02;9.35;;;27.20;51.90;;;;;;5020024;28;20101;-69
2021/07/30 08:05:25;;;;;;;19.67;9.32;;;27.40;52.10;;;;;;5030574;28;20121;-70
2021/07/30 08:07:50;;;;;;;20.02;10.48;;;27.50;52.10;;;;;;5029036;28;20025;-69
2021/07/30 08:10:16;;;;;;;19.73;12.15;;;27.60;51.70;;;;;;5031616;28;20029;-68
2021/07/30 08:12:42;;;;;;;22.95;11.13;;;27.70;51.00;;;;;;5030747;28;20690;-69
2021/07/30 08:15:08;;;;;;;16.52;10.60;;;27.70;50.80;;;;;;5031203;28;20087;-69
2021/07/30 08:17:37;;;;;;;18.83;10.60;;;27.70;50.70;;;;;;5031432;28;20033;-68
2021/07/30 08:20:05;;;;;;;19.58;11.55;;;27.70;50.60;;;;;;5031573;28;20079;-69
2021/07/30 08:22:31;;;;;;;18.13;11.30;;;27.80;50.40;;;;;;5031492;28;20033;-68
2021/07/30 08:24:56;;;;;;;20.92;11.65;;;27.80;50.30;;;;;;5030686;28;20100;-69
2021/07/30 08:27:22;;;;;;;21.70;11.35;;;27.80;50.50;;;;;;5030205;28;20176;-69
2021/07/30 08:29:48;;;;;;;18.92;12.30;;;27.80;50.50;;;;;;5031332;28;20041;-69
2021/07/30 08:32:14;;;;;;;24.20;12.52;;;27.80;50.70;;;;;;5029741;28;20123;-69
2021/07/30 08:34:40;;;;;;;19.55;11.45;;;27.90;50.70;;;;;;5030482;28;20395;-69
2021/07/30 08:37:07;;;;;;;22.90;12.52;;;27.90;50.70;;;;;;5031046;28;20072;-69
2021/07/30 08:39:33;;;;;;;21.83;11.98;;;27.90;50.70;;;;;;5034589;28;20029;-68
2021/07/30 08:42:00;;;;;;;18.02;11.15;;;28.00;50.30;;;;;;5032296;28;20029;-69
2021/07/30 08:44:27;;;;;;;24.45;12.43;;;28.00;49.80;;;;;;5048024;28;20014;-69
2021/07/30 08:46:53;;;;;;;21.45;11.45;;;28.10;49.80;;;;;;5032133;28;20395;-70
2021/07/30 08:49:19;;;;;;;19.27;11.45;;;28.10;50.00;;;;;;5030608;28;20479;-69
2021/07/30 08:51:47;;;;;;;25.42;13.30;;;28.20;49.80;;;;;;5029877;28;20120;-69
2021/07/30 08:54:16;;;;;;;22.27;12.15;;;28.20;49.40;;;;;;5032575;28;20026;-70
2021/07/30 08:56:42;;;;;;;22.85;14.77;;;28.20;49.40;;;;;;5024229;28;20026;-69
2021/07/30 08:59:08;;;;;;;21.65;13.57;;;28.20;48.80;;;;;;5031052;28;20014;-69
2021/07/30 09:01:37;;;;;;;24.75;14.93;;;28.20;48.70;;;;;;5035403;28;20028;-69
2021/07/30 09:04:03;;;;;;;20.38;12.38;;;28.20;48.50;;;;;;5038382;28;20104;-70
2021/07/30 09:06:29;;;;;;;18.40;11.13;;;28.20;49.10;;;;;;5018747;28;20022;-70
2021/07/30 09:09:01;;;;;;;21.33;12.90;;;28.30;49.40;;;;;;5028064;28;20087;-69
2021/07/30 09:11:33;;;;;;;23.38;12.52;;;28.40;49.40;;;;;;5031944;28;20112;-69
2021/07/30 09:14:04;;;;;;;28.85;13.85;;;28.50;49.20;;;;;;5031138;28;20082;-69
2021/07/30 09:16:29;;;;;;;19.00;12.40;;;28.60;48.40;;;;;;5033248;28;20013;-66
2021/07/30 09:19:04;;;;;;;19.83;12.20;;;28.70;48.40;;;;;;5033383;28;20084;-66
2021/07/30 09:21:35;;;;;;;25.33;14.00;;;28.70;48.40;;;;;;5025798;28;20030;-66
2021/07/30 09:24:04;;;;;;;30.20;15.05;;;28.80;48.30;;;;;;5033886;28;20112;-66
2021/07/30 09:27:07;;;;;;;21.48;13.70;;;28.90;48.40;;;;;;5033672;28;20033;-66
2021/07/30 09:29:34;;;;;;;24.45;13.75;;;28.90;48.30;;;;;;4991283;28;20041;-65
2021/07/30 09:32:09;;;;;;;28.90;15.05;;;29.00;47.80;;;;;;4990673;28;20092;-66
2021/07/30 09:34:35;;;;;;;22.17;14.27;;;29.00;47.10;;;;;;4981366;28;20090;-66
2021/07/30 09:37:07;;;;;;;21.55;12.75;;;29.00;47.50;;;;;;4973020;28;20367;-66
2021/07/30 09:39:33;;;;;;;18.05;12.02;;;29.00;47.50;;;;;;4990909;28;20074;-66
2021/07/30 09:42:06;;;;;;;22.88;13.60;;;29.00;46.90;;;;;;4995205;28;20037;-66
2021/07/30 09:44:35;;;;;;;19.42;12.98;;;29.10;46.20;;;;;;4998962;28;20038;-65
2021/07/30 09:47:13;;;;;;;19.05;13.35;;;29.10;46.60;;;;;;5005044;28;20042;-66
2021/07/30 09:49:45;;;;;;;24.30;14.45;;;29.10;46.40;;;;;;4996164;28;20492;-66
2021/07/30 09:52:16;;;;;;;17.50;10.70;;;29.10;45.40;;;;;;4992507;28;20444;-66
2021/07/30 09:54:49;;;;;;;19.00;12.85;;;29.10;46.00;;;;;;5002480;28;20026;-67
2021/07/30 09:57:17;;;;;;;16.33;10.85;;;29.10;45.50;;;;;;5006047;28;20535;-66
2021/07/30 09:59:44;;;;;;;17.58;11.15;;;29.20;46.00;;;;;;5006982;28;20030;-66
2021/07/30 10:02:15;;;;;;;19.02;12.70;;;29.30;46.10;;;;;;5000993;28;20061;-67
2021/07/30 10:04:46;;;;;;;22.15;11.63;;;29.30;45.30;;;;;;5034478;28;20108;-67
2021/07/30 10:07:17;;;;;;;18.88;10.50;;;29.40;45.50;;;;;;5038637;28;20360;-66
2021/07/30 10:09:54;;;;;;;18.63;10.40;;;29.50;45.70;;;;;;5037610;28;20544;-67
2021/07/30 10:12:23;;;;;;;16.00;10.32;;;29.50;45.50;;;;;;5029532;28;20103;-67
2021/07/30 10:14:51;;;;;;;21.83;11.00;;;29.60;45.40;;;;;;5043621;28;20025;-66
2021/07/30 10:17:26;;;;;;;14.68;10.13;;;29.70;44.50;;;;;;5039842;28;20040;-66
2021/07/30 10:19:54;;;;;;;18.23;10.55;;;29.70;44.80;;;;;;5017252;28;20056;-66
2021/07/30 10:22:20;;;;;;;13.70;9.27;;;29.80;44.90;;;;;;5038824;28;20090;-67
2021/07/30 10:24:51;;;;;;;13.77;9.35;;;29.80;44.20;;;;;;5041456;28;20386;-67
2021/07/30 10:27:19;;;;;;;14.73;8.93;;;29.80;44.00;;;;;;5048891;28;20025;-67
2021/07/30 10:30:09;;;;;;;15.85;8.85;;;29.90;44.10;;;;;;5033155;28;20856;-67
2021/07/30 10:32:44;;;;;;;14.45;9.40;;;29.80;43.90;;;;;;5042112;28;20037;-67
2021/07/30 10:35:11;;;;;;;11.70;9.00;;;29.90;44.10;;;;;;5035951;28;20483;-67
2021/07/30 10:37:38;;;;;;;11.48;8.38;;;30.00;43.10;;;;;;5040653;28;20030;-66
2021/07/30 10:40:13;;;;;;;12.63;8.93;;;30.00;42.90;;;;;;5051277;28;20013;-67
2021/07/30 10:43:04;;;;;;;12.30;7.93;;;30.10;42.40;;;;;;5038924;28;20026;-66
2021/07/30 10:45:37;;;;;;;13.32;8.07;;;30.10;43.30;;;;;;5037715;28;20025;-66
2021/07/30 10:48:15;;;;;;;13.70;8.25;;;30.20;42.70;;;;;;5044447;28;20057;-67
2021/07/30 10:50:51;;;;;;;12.90;7.35;;;30.20;42.50;;;;;;5023287;28;20022;-66
2021/07/30 10:53:38;;;;;;;11.18;7.25;;;30.30;42.70;;;;;;5039612;28;20112;-66
2021/07/30 10:56:04;;;;;;;12.73;7.28;;;30.30;42.50;;;;;;5019029;28;20018;-66
2021/07/30 10:58:39;;;;;;;13.07;7.20;;;30.40;42.10;;;;;;5040469;28;20036;-66
2021/07/30 11:01:05;;;;;;;10.25;6.55;;;30.40;41.80;;;;;;5047842;28;20195;-66
2021/07/30 11:03:52;;;;;;;11.57;7.10;;;30.50;42.00;;;;;;5031216;28;20052;-66
2021/07/30 11:06:28;;;;;;;15.38;8.40;;;30.60;42.10;;;;;;5028037;28;20478;-66
2021/07/30 11:09:18;;;;;;;13.15;8.27;;;30.70;42.00;;;;;;5030864;28;20025;-66
2021/07/30 11:11:51;;;;;;;11.45;6.72;;;30.80;41.60;;;;;;5031197;28;20104;-66
2021/07/30 11:14:26;;;;;;;10.07;6.35;;;30.90;40.80;;;;;;5032048;28;20026;-66
2021/07/30 11:16:56;;;;;;;9.20;5.80;;;31.00;40.60;;;;;;5031401;28;20029;-66
2021/07/30 11:19:33;;;;;;;10.23;6.10;;;31.00;38.60;;;;;;5030139;28;20021;-68
2021/07/30 11:22:07;;;;;;;7.78;5.15;;;31.10;38.90;;;;;;5022377;28;20395;-66
2021/07/30 11:25:02;;;;;;;8.45;5.45;;;31.10;37.30;;;;;;5030860;28;20017;-67
2021/07/30 11:27:28;;;;;;;9.65;5.28;;;31.10;37.80;;;;;;5022799;28;20030;-66
2021/07/30 11:29:55;;;;;;;9.10;4.68;;;31.20;38.00;;;;;;5015278;28;20022;-66
2021/07/30 11:32:23;;;;;;;9.07;5.43;;;31.20;36.30;;;;;;5030842;28;20052;-66
2021/07/30 11:34:50;;;;;;;8.20;4.70;;;31.20;36.70;;;;;;5029720;28;20025;-68
2021/07/30 11:37:23;;;;;;;12.80;5.30;;;31.20;36.70;;;;;;5031319;28;20128;-66
2021/07/30 11:39:50;;;;;;;11.60;6.38;;;31.30;36.40;;;;;;5031010;28;20352;-72
2021/07/30 11:42:34;;;;;;;6.90;4.35;;;31.30;36.20;;;;;;5031676;28;20036;-74
2021/07/30 11:45:07;;;;;;;6.60;4.88;;;31.40;36.70;;;;;;5031972;28;20022;-65
2021/07/30 11:47:34;;;;;;;6.50;4.40;;;31.50;36.30;;;;;;5030913;28;20025;-77
2021/07/30 11:50:03;;;;;;;9.77;5.45;;;31.50;35.60;;;;;;5030097;28;20060;-74
2021/07/30 11:52:32;;;;;;;8.20;5.50;;;31.50;35.70;;;;;;5019249;28;20026;-77
2021/07/30 11:55:19;;;;;;;7.80;4.57;;;31.60;36.20;;;;;;5030867;28;20022;-70
2021/07/30 11:57:49;;;;;;;8.68;5.68;;;31.60;36.60;;;;;;5030999;28;20075;-75
2021/07/30 12:00:23;;;;;;;8.98;5.50;;;31.70;36.50;;;;;;5031318;28;20033;-75
2021/07/30 12:02:49;;;;;;;8.60;4.65;;;31.80;36.40;;;;;;5030859;28;20056;-74
2021/07/30 12:05:14;;;;;;;8.77;4.47;;;31.80;35.60;;;;;;5029181;28;20475;-76
2021/07/30 12:07:40;;;;;;;6.05;4.60;;;31.90;34.50;;;;;;5032123;28;20079;-79
2021/07/30 12:10:14;;;;;;;7.95;4.10;;;31.90;34.00;;;;;;5030341;28;20021;-75
2021/07/30 12:12:40;;;;;;;;;;;31.90;34.10;;;;;;5030030;28;20402;-71
2021/07/30 12:15:08;;;;;;;5.68;4.50;;;32.00;35.70;;;;;;5031283;28;19912;-76
2021/07/30 12:17:34;;;;;;;6.50;4.20;;;32.00;34.40;;;;;;5026907;28;20044;-70
2021/07/30 12:20:13;;;;;;;10.20;4.35;;;32.00;34.70;;;;;;5030792;28;20029;-67
2021/07/30 12:22:43;;;;;;;5.05;3.50;;;32.00;34.80;;;;;;5030648;28;20040;-74
2021/07/30 12:25:12;;;;;;;6.22;4.25;;;32.00;34.90;;;;;;5031222;28;20030;-73
2021/07/30 12:27:38;;;;;;;5.78;4.68;;;32.00;34.70;;;;;;5030584;28;20171;-70
2021/07/30 12:30:05;;;;;;;12.55;5.93;;;32.10;34.30;;;;;;5030658;28;20108;-69
2021/07/30 12:32:40;;;;;;;5.85;4.55;;;32.10;34.20;;;;;;5029990;28;20536;-75
2021/07/30 12:35:14;;;;;;;5.28;3.80;;;32.10;34.50;;;;;;5023071;28;20105;-68
2021/07/30 12:38:06;;;;;;;4.70;3.80;;;32.20;34.10;;;;;;5018663;28;20036;-67
2021/07/30 12:40:33;;;;;;;3.63;3.30;;;32.30;34.50;;;;;;5030205;28;20029;-67
2021/07/30 12:43:14;;;;;;;5.25;3.30;;;32.30;33.40;;;;;;5030273;28;20502;-63
2021/07/30 12:45:45;;;;;;;5.50;3.53;;;32.30;33.40;;;;;;5029968;28;20466;-70